sensor_id;sensor_type;location;lat;lon;timestamp;pressure;altitude;pressure_sealevel;temperature;humidity
45523;BME280;31254;51.680;5.394;2023-06-22T00:01:19;101913.03;;;20.48;67.37
45523;BME280;31254;51.680;5.394;2023-06-22T00:03:46;101890.81;;;20.33;67.92
45523;BME280;31254;51.680;5.394;2023-06-22T00:06:13;101885.00;;;20.27;68.09
45523;BME280;31254;51.680;5.394;2023-06-22T00:08:42;101892.09;;;20.30;68.15
45523;BME280;31254;51.680;5.394;2023-06-22T00:11:09;101906.59;;;20.32;68.50
45523;BME280;31254;51.680;5.394;2023-06-22T00:13:36;101870.84;;;20.07;68.49
45523;BME280;31254;51.680;5.394;2023-06-22T00:16:05;101910.31;;;20.24;68.72
45523;BME280;31254;51.680;5.394;2023-06-22T00:18:32;101904.28;;;20.21;69.06
45523;BME280;31254;51.680;5.394;2023-06-22T00:20:59;101893.75;;;20.16;69.06
45523;BME280;31254;51.680;5.394;2023-06-22T00:23:26;101888.78;;;20.12;69.14
45523;BME280;31254;51.680;5.394;2023-06-22T00:25:53;101894.72;;;20.08;69.59
45523;BME280;31254;51.680;5.394;2023-06-22T00:28:21;101803.00;;;19.50;69.69
45523;BME280;31254;51.680;5.394;2023-06-22T00:30:48;101896.50;;;20.01;70.14
45523;BME280;31254;51.680;5.394;2023-06-22T00:33:16;101874.50;;;19.85;70.22
45523;BME280;31254;51.680;5.394;2023-06-22T00:35:43;101875.53;;;19.84;70.34
45523;BME280;31254;51.680;5.394;2023-06-22T00:38:10;101881.28;;;19.82;70.75
45523;BME280;31254;51.680;5.394;2023-06-22T00:40:37;101894.25;;;19.82;70.87
45523;BME280;31254;51.680;5.394;2023-06-22T00:43:05;101896.66;;;19.85;71.19
45523;BME280;31254;51.680;5.394;2023-06-22T00:45:35;101877.03;;;19.71;71.70
45523;BME280;31254;51.680;5.394;2023-06-22T00:48:02;101751.72;;;18.93;71.66
45523;BME280;31254;51.680;5.394;2023-06-22T00:50:31;101896.38;;;19.80;71.63
45523;BME280;31254;51.680;5.394;2023-06-22T00:53:05;101881.81;;;19.78;71.54
45523;BME280;31254;51.680;5.394;2023-06-22T00:55:42;101880.81;;;19.70;71.88
45523;BME280;31254;51.680;5.394;2023-06-22T00:58:13;101879.97;;;19.70;71.90
45523;BME280;31254;51.680;5.394;2023-06-22T01:00:42;101887.97;;;19.65;72.21
45523;BME280;31254;51.680;5.394;2023-06-22T01:03:11;101887.97;;;19.65;72.44
45523;BME280;31254;51.680;5.394;2023-06-22T01:05:39;101877.16;;;19.55;72.24
45523;BME280;31254;51.680;5.394;2023-06-22T01:08:34;101886.50;;;19.54;72.11
45523;BME280;31254;51.680;5.394;2023-06-22T01:11:18;101878.56;;;19.51;72.55
45523;BME280;31254;51.680;5.394;2023-06-22T01:16:41;101863.00;;;19.27;73.62
45523;BME280;31254;51.680;5.394;2023-06-22T01:22:04;101866.84;;;19.17;74.08
45523;BME280;31254;51.680;5.394;2023-06-22T01:25:09;101876.19;;;19.16;73.72
45523;BME280;31254;51.680;5.394;2023-06-22T01:28:10;101871.88;;;19.14;73.66
45523;BME280;31254;51.680;5.394;2023-06-22T01:30:47;101866.72;;;19.11;74.50
45523;BME280;31254;51.680;5.394;2023-06-22T01:33:18;101879.31;;;19.13;74.86
45523;BME280;31254;51.680;5.394;2023-06-22T01:35:45;101875.38;;;19.08;74.87
45523;BME280;31254;51.680;5.394;2023-06-22T01:38:12;101883.78;;;19.14;75.17
45523;BME280;31254;51.680;5.394;2023-06-22T01:40:39;101879.31;;;19.13;75.39
45523;BME280;31254;51.680;5.394;2023-06-22T01:43:06;101826.75;;;18.82;75.79
45523;BME280;31254;51.680;5.394;2023-06-22T01:45:33;101871.56;;;19.09;75.82
45523;BME280;31254;51.680;5.394;2023-06-22T01:48:00;101871.94;;;19.06;75.91
45523;BME280;31254;51.680;5.394;2023-06-22T01:50:28;101854.72;;;18.95;76.35
45523;BME280;31254;51.680;5.394;2023-06-22T01:52:55;101866.09;;;19.00;76.39
45523;BME280;31254;51.680;5.394;2023-06-22T01:55:22;101879.19;;;19.07;76.51
45523;BME280;31254;51.680;5.394;2023-06-22T01:57:49;101880.72;;;19.09;76.85
45523;BME280;31254;51.680;5.394;2023-06-22T02:00:20;101880.53;;;19.11;77.00
45523;BME280;31254;51.680;5.394;2023-06-22T02:02:54;101885.03;;;19.12;76.93
45523;BME280;31254;51.680;5.394;2023-06-22T02:05:33;101878.84;;;19.10;76.99
45523;BME280;31254;51.680;5.394;2023-06-22T02:08:13;101860.75;;;18.99;76.79
45523;BME280;31254;51.680;5.394;2023-06-22T02:10:45;101869.69;;;19.01;76.85
45523;BME280;31254;51.680;5.394;2023-06-22T02:13:13;101871.94;;;19.06;77.07
45523;BME280;31254;51.680;5.394;2023-06-22T02:15:41;101870.19;;;19.05;77.01
45523;BME280;31254;51.680;5.394;2023-06-22T02:18:08;101735.00;;;18.24;77.09
45523;BME280;31254;51.680;5.394;2023-06-22T02:20:39;101859.88;;;18.98;77.30
45523;BME280;31254;51.680;5.394;2023-06-22T02:23:07;101851.13;;;18.87;77.33
45523;BME280;31254;51.680;5.394;2023-06-22T02:25:35;101847.69;;;18.85;77.47
45523;BME280;31254;51.680;5.394;2023-06-22T02:28:02;101856.47;;;18.88;77.54
45523;BME280;31254;51.680;5.394;2023-06-22T02:30:29;101810.28;;;18.57;78.06
45523;BME280;31254;51.680;5.394;2023-06-22T02:32:58;101864.25;;;18.85;78.09
45523;BME280;31254;51.680;5.394;2023-06-22T02:35:29;101857.16;;;18.82;78.52
45523;BME280;31254;51.680;5.394;2023-06-22T02:38:03;101849.25;;;18.79;78.72
45523;BME280;31254;51.680;5.394;2023-06-22T02:40:30;101851.31;;;18.77;78.68
45523;BME280;31254;51.680;5.394;2023-06-22T02:42:58;101850.44;;;18.76;78.97
45523;BME280;31254;51.680;5.394;2023-06-22T02:45:29;101842.34;;;18.75;79.09
45523;BME280;31254;51.680;5.394;2023-06-22T02:47:56;101853.03;;;18.78;79.36
45523;BME280;31254;51.680;5.394;2023-06-22T02:50:23;101851.47;;;18.75;79.32
45523;BME280;31254;51.680;5.394;2023-06-22T02:52:50;101833.91;;;18.68;79.30
45523;BME280;31254;51.680;5.394;2023-06-22T02:55:17;101848.88;;;18.74;79.63
45523;BME280;31254;51.680;5.394;2023-06-22T02:57:44;101798.28;;;18.42;79.64
45523;BME280;31254;51.680;5.394;2023-06-22T03:00:14;101841.34;;;18.68;79.82
45523;BME280;31254;51.680;5.394;2023-06-22T03:02:44;101834.44;;;18.63;80.04
45523;BME280;31254;51.680;5.394;2023-06-22T03:05:14;101848.94;;;18.66;79.96
45523;BME280;31254;51.680;5.394;2023-06-22T03:07:45;101847.22;;;18.64;80.24
45523;BME280;31254;51.680;5.394;2023-06-22T03:10:13;101822.03;;;18.51;80.43
45523;BME280;31254;51.680;5.394;2023-06-22T03:16:31;101802.91;;;18.41;80.08
45523;BME280;31254;51.680;5.394;2023-06-22T03:19:00;101817.75;;;18.49;80.28
45523;BME280;31254;51.680;5.394;2023-06-22T03:21:28;101818.78;;;18.48;80.50
45523;BME280;31254;51.680;5.394;2023-06-22T03:23:58;101795.00;;;18.38;80.61
45523;BME280;31254;51.680;5.394;2023-06-22T03:26:27;101809.47;;;18.49;80.73
45523;BME280;31254;51.680;5.394;2023-06-22T03:28:54;101805.19;;;18.38;80.96
45523;BME280;31254;51.680;5.394;2023-06-22T03:31:21;101810.53;;;18.39;81.00
45523;BME280;31254;51.680;5.394;2023-06-22T03:33:51;101820.38;;;18.42;81.40
45523;BME280;31254;51.680;5.394;2023-06-22T03:36:18;101797.97;;;18.28;80.83
45523;BME280;31254;51.680;5.394;2023-06-22T03:38:49;101801.59;;;18.29;81.20
45523;BME280;31254;51.680;5.394;2023-06-22T03:41:17;101814.19;;;18.32;81.12
45523;BME280;31254;51.680;5.394;2023-06-22T03:43:46;101799.19;;;18.26;81.11
45523;BME280;31254;51.680;5.394;2023-06-22T03:46:13;101809.72;;;18.31;81.13
45523;BME280;31254;51.680;5.394;2023-06-22T03:48:40;101820.59;;;18.32;81.23
45523;BME280;31254;51.680;5.394;2023-06-22T03:51:07;101818.69;;;18.33;81.24
45523;BME280;31254;51.680;5.394;2023-06-22T03:53:33;101799.19;;;18.26;81.14
45523;BME280;31254;51.680;5.394;2023-06-22T03:56:00;101744.94;;;17.94;81.21
45523;BME280;31254;51.680;5.394;2023-06-22T03:58:29;101800.53;;;18.30;81.00
45523;BME280;31254;51.680;5.394;2023-06-22T04:00:59;101807.09;;;18.37;80.82
45523;BME280;31254;51.680;5.394;2023-06-22T04:03:26;101797.44;;;18.33;81.16
45523;BME280;31254;51.680;5.394;2023-06-22T04:05:53;101801.34;;;18.47;81.01
45523;BME280;31254;51.680;5.394;2023-06-22T04:08:22;101792.00;;;18.48;80.71
45523;BME280;31254;51.680;5.394;2023-06-22T04:10:49;101787.81;;;18.60;80.12
45523;BME280;31254;51.680;5.394;2023-06-22T04:13:18;101795.47;;;18.90;79.23
45523;BME280;31254;51.680;5.394;2023-06-22T04:15:45;101801.38;;;19.56;77.50
45523;BME280;31254;51.680;5.394;2023-06-22T04:18:15;101796.53;;;20.11;75.48
45523;BME280;31254;51.680;5.394;2023-06-22T04:20:41;101795.19;;;20.52;74.20
45523;BME280;31254;51.680;5.394;2023-06-22T04:23:08;101795.31;;;20.95;72.67
45523;BME280;31254;51.680;5.394;2023-06-22T04:25:35;101788.13;;;21.44;70.99
45523;BME280;31254;51.680;5.394;2023-06-22T04:28:02;101785.41;;;21.72;70.41
45523;BME280;31254;51.680;5.394;2023-06-22T04:30:32;101796.81;;;21.55;70.56
45523;BME280;31254;51.680;5.394;2023-06-22T04:32:59;101791.09;;;21.42;71.28
45523;BME280;31254;51.680;5.394;2023-06-22T04:35:28;101794.75;;;21.21;71.59
45523;BME280;31254;51.680;5.394;2023-06-22T04:37:58;101777.72;;;20.88;72.43
45523;BME280;31254;51.680;5.394;2023-06-22T04:40:24;101790.69;;;21.02;72.11
45523;BME280;31254;51.680;5.394;2023-06-22T04:42:54;101781.94;;;21.42;71.33
45523;BME280;31254;51.680;5.394;2023-06-22T04:45:23;101780.19;;;21.84;69.71
45523;BME280;31254;51.680;5.394;2023-06-22T04:47:50;101793.31;;;22.32;68.32
45523;BME280;31254;51.680;5.394;2023-06-22T04:50:17;101804.78;;;23.05;66.15
45523;BME280;31254;51.680;5.394;2023-06-22T04:52:47;101787.28;;;22.63;66.97
45523;BME280;31254;51.680;5.394;2023-06-22T04:55:14;101795.69;;;22.35;67.92
45523;BME280;31254;51.680;5.394;2023-06-22T04:57:47;101794.75;;;22.21;68.28
45523;BME280;31254;51.680;5.394;2023-06-22T05:00:18;101808.09;;;22.04;69.06
45523;BME280;31254;51.680;5.394;2023-06-22T05:02:52;101808.75;;;22.34;68.60
45523;BME280;31254;51.680;5.394;2023-06-22T05:05:29;101799.53;;;22.75;66.99
45523;BME280;31254;51.680;5.394;2023-06-22T05:07:56;101811.88;;;23.21;65.43
45523;BME280;31254;51.680;5.394;2023-06-22T05:10:26;101796.06;;;23.48;63.90
45523;BME280;31254;51.680;5.394;2023-06-22T05:12:56;101786.66;;;23.49;63.81
45523;BME280;31254;51.680;5.394;2023-06-22T05:15:23;101799.94;;;23.54;63.79
45523;BME280;31254;51.680;5.394;2023-06-22T05:17:53;101754.38;;;22.67;65.89
45523;BME280;31254;51.680;5.394;2023-06-22T05:20:20;101802.66;;;22.59;67.45
45523;BME280;31254;51.680;5.394;2023-06-22T05:22:48;101784.81;;;22.05;68.58
45523;BME280;31254;51.680;5.394;2023-06-22T05:25:17;101804.63;;;21.95;69.70
45523;BME280;31254;51.680;5.394;2023-06-22T05:27:44;101779.84;;;21.72;69.98
45523;BME280;31254;51.680;5.394;2023-06-22T05:30:11;101791.38;;;21.69;70.58
45523;BME280;31254;51.680;5.394;2023-06-22T05:32:38;101804.44;;;21.75;70.67
45523;BME280;31254;51.680;5.394;2023-06-22T05:35:05;101802.16;;;21.79;70.40
45523;BME280;31254;51.680;5.394;2023-06-22T05:37:32;101810.94;;;22.17;68.98
45523;BME280;31254;51.680;5.394;2023-06-22T05:39:58;101795.03;;;23.96;63.38
45523;BME280;31254;51.680;5.394;2023-06-22T05:42:27;101790.09;;;25.15;59.47
45523;BME280;31254;51.680;5.394;2023-06-22T05:44:54;101791.31;;;25.83;57.18
45523;BME280;31254;51.680;5.394;2023-06-22T05:47:21;101787.38;;;25.91;57.27
45523;BME280;31254;51.680;5.394;2023-06-22T05:49:49;101776.19;;;26.35;56.60
45523;BME280;31254;51.680;5.394;2023-06-22T05:52:16;101784.41;;;27.46;53.61
45523;BME280;31254;51.680;5.394;2023-06-22T05:54:42;101771.38;;;27.63;52.71
45523;BME280;31254;51.680;5.394;2023-06-22T05:57:09;101771.59;;;28.44;51.53
45523;BME280;31254;51.680;5.394;2023-06-22T05:59:39;101772.00;;;29.06;50.01
45523;BME280;31254;51.680;5.394;2023-06-22T06:02:09;101778.41;;;29.47;48.99
45523;BME280;31254;51.680;5.394;2023-06-22T06:04:38;101742.63;;;29.59;47.99
45523;BME280;31254;51.680;5.394;2023-06-22T06:07:07;101786.91;;;30.42;47.10
45523;BME280;31254;51.680;5.394;2023-06-22T06:09:34;101785.88;;;30.92;45.78
45523;BME280;31254;51.680;5.394;2023-06-22T06:12:03;101780.25;;;30.70;46.30
45523;BME280;31254;51.680;5.394;2023-06-22T06:14:29;101768.50;;;30.12;47.46
45523;BME280;31254;51.680;5.394;2023-06-22T06:16:56;101775.66;;;30.03;48.22
45523;BME280;31254;51.680;5.394;2023-06-22T06:19:23;101770.03;;;29.18;49.38
45523;BME280;31254;51.680;5.394;2023-06-22T06:21:54;101760.25;;;28.39;51.38
45523;BME280;31254;51.680;5.394;2023-06-22T06:24:21;101766.75;;;28.28;51.54
45523;BME280;31254;51.680;5.394;2023-06-22T06:26:48;101785.03;;;27.83;52.84
45523;BME280;31254;51.680;5.394;2023-06-22T06:29:14;101786.69;;;27.37;54.52
45523;BME280;31254;51.680;5.394;2023-06-22T06:31:43;101760.16;;;26.79;55.14
45523;BME280;31254;51.680;5.394;2023-06-22T06:34:09;101777.53;;;26.32;56.59
45523;BME280;31254;51.680;5.394;2023-06-22T06:36:38;101776.81;;;25.93;57.79
45523;BME280;31254;51.680;5.394;2023-06-22T06:39:05;101773.25;;;25.61;58.77
45523;BME280;31254;51.680;5.394;2023-06-22T06:41:32;101769.63;;;25.79;59.05
45523;BME280;31254;51.680;5.394;2023-06-22T06:43:58;101774.84;;;26.00;58.37
45523;BME280;31254;51.680;5.394;2023-06-22T06:46:27;101765.25;;;25.89;58.45
45523;BME280;31254;51.680;5.394;2023-06-22T06:48:54;101776.72;;;25.81;58.85
45523;BME280;31254;51.680;5.394;2023-06-22T06:51:21;101776.56;;;25.76;58.97
45523;BME280;31254;51.680;5.394;2023-06-22T06:53:50;101766.09;;;25.90;57.88
45523;BME280;31254;51.680;5.394;2023-06-22T06:56:17;101781.16;;;25.64;59.17
45523;BME280;31254;51.680;5.394;2023-06-22T06:58:44;101774.53;;;25.33;59.38
45523;BME280;31254;51.680;5.394;2023-06-22T07:01:14;101771.16;;;24.86;61.04
45523;BME280;31254;51.680;5.394;2023-06-22T07:03:41;101774.50;;;24.62;61.62
45523;BME280;31254;51.680;5.394;2023-06-22T07:06:09;101777.06;;;24.64;61.85
45523;BME280;31254;51.680;5.394;2023-06-22T07:08:35;101759.91;;;24.54;62.44
45523;BME280;31254;51.680;5.394;2023-06-22T07:11:05;101760.59;;;24.49;62.86
45523;BME280;31254;51.680;5.394;2023-06-22T07:13:32;101758.66;;;24.50;62.46
45523;BME280;31254;51.680;5.394;2023-06-22T07:16:01;101764.03;;;24.44;62.80
45523;BME280;31254;51.680;5.394;2023-06-22T07:18:27;101756.91;;;24.55;63.02
45523;BME280;31254;51.680;5.394;2023-06-22T07:20:54;101763.59;;;24.41;63.15
45523;BME280;31254;51.680;5.394;2023-06-22T07:23:23;101768.56;;;24.32;63.49
45523;BME280;31254;51.680;5.394;2023-06-22T07:25:50;101763.63;;;24.34;63.88
45523;BME280;31254;51.680;5.394;2023-06-22T07:28:17;101758.25;;;24.39;63.57
45523;BME280;31254;51.680;5.394;2023-06-22T07:30:48;101756.31;;;24.46;63.68
45523;BME280;31254;51.680;5.394;2023-06-22T07:33:15;101733.81;;;24.41;63.81
45523;BME280;31254;51.680;5.394;2023-06-22T07:35:44;101758.84;;;24.61;63.25
45523;BME280;31254;51.680;5.394;2023-06-22T07:38:13;101737.94;;;24.77;62.66
45523;BME280;31254;51.680;5.394;2023-06-22T07:40:41;101751.13;;;25.34;61.55
45523;BME280;31254;51.680;5.394;2023-06-22T07:43:08;101749.56;;;25.38;61.34
45523;BME280;31254;51.680;5.394;2023-06-22T07:45:34;101743.66;;;25.28;61.43
45523;BME280;31254;51.680;5.394;2023-06-22T07:48:03;101741.22;;;25.06;62.00
45523;BME280;31254;51.680;5.394;2023-06-22T07:50:32;101736.03;;;24.71;62.33
45523;BME280;31254;51.680;5.394;2023-06-22T07:52:59;101724.75;;;24.53;63.09
45523;BME280;31254;51.680;5.394;2023-06-22T07:55:26;101741.69;;;24.58;63.32
45523;BME280;31254;51.680;5.394;2023-06-22T07:57:53;101730.50;;;24.64;63.11
45523;BME280;31254;51.680;5.394;2023-06-22T08:00:24;101716.13;;;24.68;63.46
45523;BME280;31254;51.680;5.394;2023-06-22T08:02:51;101710.56;;;24.61;63.36
45523;BME280;31254;51.680;5.394;2023-06-22T08:05:19;101714.63;;;24.65;63.70
45523;BME280;31254;51.680;5.394;2023-06-22T08:07:49;101709.47;;;24.62;63.76
45523;BME280;31254;51.680;5.394;2023-06-22T08:10:20;101696.47;;;24.42;63.88
45523;BME280;31254;51.680;5.394;2023-06-22T08:12:49;101707.19;;;24.45;63.75
45523;BME280;31254;51.680;5.394;2023-06-22T08:15:18;101701.59;;;24.45;63.74
45523;BME280;31254;51.680;5.394;2023-06-22T08:17:45;101689.34;;;24.53;63.42
45523;BME280;31254;51.680;5.394;2023-06-22T08:20:15;101689.56;;;24.52;63.55
45523;BME280;31254;51.680;5.394;2023-06-22T08:22:42;101691.84;;;24.68;63.01
45523;BME280;31254;51.680;5.394;2023-06-22T08:25:10;101658.22;;;24.63;62.67
45523;BME280;31254;51.680;5.394;2023-06-22T08:27:37;101692.19;;;24.85;62.26
45523;BME280;31254;51.680;5.394;2023-06-22T08:30:08;101674.22;;;24.74;62.34
45523;BME280;31254;51.680;5.394;2023-06-22T08:32:40;101678.28;;;24.78;62.48
45523;BME280;31254;51.680;5.394;2023-06-22T08:35:07;101679.81;;;24.74;62.50
45523;BME280;31254;51.680;5.394;2023-06-22T08:37:36;101672.72;;;24.72;62.57
45523;BME280;31254;51.680;5.394;2023-06-22T08:40:07;101678.97;;;24.74;62.71
45523;BME280;31254;51.680;5.394;2023-06-22T08:42:39;101675.69;;;24.84;62.54
45523;BME280;31254;51.680;5.394;2023-06-22T08:45:07;101679.09;;;24.86;62.89
45523;BME280;31254;51.680;5.394;2023-06-22T08:47:34;101676.69;;;24.89;62.47
45523;BME280;31254;51.680;5.394;2023-06-22T08:50:00;101681.22;;;24.90;62.10
45523;BME280;31254;51.680;5.394;2023-06-22T08:52:30;101671.63;;;24.79;61.26
45523;BME280;31254;51.680;5.394;2023-06-22T08:54:57;101673.13;;;24.82;60.83
45523;BME280;31254;51.680;5.394;2023-06-22T08:57:25;101669.94;;;24.78;60.54
45523;BME280;31254;51.680;5.394;2023-06-22T08:59:52;101674.41;;;24.79;61.33
45523;BME280;31254;51.680;5.394;2023-06-22T09:02:26;101680.97;;;24.92;61.07
45523;BME280;31254;51.680;5.394;2023-06-22T09:05:03;101665.38;;;24.84;61.09
45523;BME280;31254;51.680;5.394;2023-06-22T09:07:33;101675.13;;;25.00;61.13
45523;BME280;31254;51.680;5.394;2023-06-22T09:10:01;101661.41;;;24.98;60.77
45523;BME280;31254;51.680;5.394;2023-06-22T09:12:29;101668.47;;;25.01;59.75
45523;BME280;31254;51.680;5.394;2023-06-22T09:15:00;101662.28;;;24.92;59.38
45523;BME280;31254;51.680;5.394;2023-06-22T09:17:27;101661.06;;;24.88;58.67
45523;BME280;31254;51.680;5.394;2023-06-22T09:19:56;101655.59;;;24.68;58.89
45523;BME280;31254;51.680;5.394;2023-06-22T09:22:28;101648.56;;;24.66;58.99
45523;BME280;31254;51.680;5.394;2023-06-22T09:24:55;101664.13;;;24.80;58.86
45523;BME280;31254;51.680;5.394;2023-06-22T09:27:22;101652.31;;;24.78;58.82
45523;BME280;31254;51.680;5.394;2023-06-22T09:29:49;101655.28;;;24.83;59.10
45523;BME280;31254;51.680;5.394;2023-06-22T09:32:16;101662.78;;;24.82;58.81
45523;BME280;31254;51.680;5.394;2023-06-22T09:34:45;101644.84;;;24.72;59.21
45523;BME280;31254;51.680;5.394;2023-06-22T09:37:12;101659.03;;;24.70;58.30
45523;BME280;31254;51.680;5.394;2023-06-22T09:39:39;101668.06;;;24.66;58.31
45523;BME280;31254;51.680;5.394;2023-06-22T09:42:08;101659.72;;;24.66;58.19
45523;BME280;31254;51.680;5.394;2023-06-22T09:44:35;101644.50;;;24.61;58.32
45523;BME280;31254;51.680;5.394;2023-06-22T09:47:02;101650.91;;;24.69;58.12
45523;BME280;31254;51.680;5.394;2023-06-22T09:49:31;101641.03;;;24.66;57.31
45523;BME280;31254;51.680;5.394;2023-06-22T09:52:16;101616.00;;;24.53;57.51
45523;BME280;31254;51.680;5.394;2023-06-22T09:54:43;101647.22;;;24.68;57.40
45523;BME280;31254;51.680;5.394;2023-06-22T09:57:12;101630.56;;;24.55;57.52
45523;BME280;31254;51.680;5.394;2023-06-22T09:59:39;101658.22;;;24.63;57.12
45523;BME280;31254;51.680;5.394;2023-06-22T10:02:08;101641.72;;;24.55;57.50
45523;BME280;31254;51.680;5.394;2023-06-22T10:04:38;101636.56;;;24.58;57.51
45523;BME280;31254;51.680;5.394;2023-06-22T10:07:06;101646.59;;;24.66;57.29
45523;BME280;31254;51.680;5.394;2023-06-22T10:09:33;101638.47;;;24.64;57.69
45523;BME280;31254;51.680;5.394;2023-06-22T10:12:02;101632.47;;;24.61;58.39
45523;BME280;31254;51.680;5.394;2023-06-22T10:14:31;101641.69;;;24.61;58.46
45523;BME280;31254;51.680;5.394;2023-06-22T10:16:57;101637.19;;;24.54;58.54
45523;BME280;31254;51.680;5.394;2023-06-22T10:19:25;101640.44;;;24.51;58.50
45523;BME280;31254;51.680;5.394;2023-06-22T10:21:52;101635.81;;;24.38;58.37
45523;BME280;31254;51.680;5.394;2023-06-22T10:24:19;101638.13;;;24.41;58.48
45523;BME280;31254;51.680;5.394;2023-06-22T10:26:46;101627.91;;;24.35;58.46
45523;BME280;31254;51.680;5.394;2023-06-22T10:29:13;101632.38;;;24.36;58.28
45523;BME280;31254;51.680;5.394;2023-06-22T10:31:43;101642.03;;;24.40;58.64
45523;BME280;31254;51.680;5.394;2023-06-22T10:34:09;101631.31;;;24.37;58.15
45523;BME280;31254;51.680;5.394;2023-06-22T10:36:36;101624.44;;;24.33;58.23
45523;BME280;31254;51.680;5.394;2023-06-22T10:39:03;101642.25;;;24.38;58.25
45523;BME280;31254;51.680;5.394;2023-06-22T10:41:30;101646.31;;;24.36;58.32
45523;BME280;31254;51.680;5.394;2023-06-22T10:43:57;101649.75;;;24.38;58.52
45523;BME280;31254;51.680;5.394;2023-06-22T10:46:25;101646.31;;;24.36;58.68
45523;BME280;31254;51.680;5.394;2023-06-22T10:48:52;101652.09;;;24.34;58.94
45523;BME280;31254;51.680;5.394;2023-06-22T10:51:21;101644.63;;;24.28;58.82
45523;BME280;31254;51.680;5.394;2023-06-22T10:53:48;101639.09;;;24.21;59.18
45523;BME280;31254;51.680;5.394;2023-06-22T10:56:15;101656.47;;;24.23;60.06
45523;BME280;31254;51.680;5.394;2023-06-22T10:58:44;101651.31;;;24.27;60.23
45523;BME280;31254;51.680;5.394;2023-06-22T11:01:11;101665.66;;;24.31;60.84
45523;BME280;31254;51.680;5.394;2023-06-22T11:03:55;101655.78;;;24.28;61.58
45523;BME280;31254;51.680;5.394;2023-06-22T11:06:22;101663.53;;;24.26;62.04
45523;BME280;31254;51.680;5.394;2023-06-22T11:08:49;101663.94;;;24.30;63.17
45523;BME280;31254;51.680;5.394;2023-06-22T11:11:34;101665.25;;;24.27;63.72
45523;BME280;31254;51.680;5.394;2023-06-22T11:14:01;101657.31;;;24.24;63.98
45523;BME280;31254;51.680;5.394;2023-06-22T11:16:28;101647.50;;;24.15;64.57
45523;BME280;31254;51.680;5.394;2023-06-22T11:18:56;101664.19;;;24.21;65.34
45523;BME280;31254;51.680;5.394;2023-06-22T11:21:23;101628.06;;;23.95;65.45
45523;BME280;31254;51.680;5.394;2023-06-22T11:23:50;101661.91;;;23.98;66.17
45523;BME280;31254;51.680;5.394;2023-06-22T11:26:17;101652.31;;;23.87;66.63
45523;BME280;31254;51.680;5.394;2023-06-22T11:28:44;101654.25;;;23.73;66.63
45523;BME280;31254;51.680;5.394;2023-06-22T11:31:11;101650.84;;;23.65;67.45
45523;BME280;31254;51.680;5.394;2023-06-22T11:33:41;101650.00;;;23.58;67.63
45523;BME280;31254;51.680;5.394;2023-06-22T11:36:08;101654.28;;;23.53;68.56
45523;BME280;31254;51.680;5.394;2023-06-22T11:38:35;101661.81;;;23.46;68.54
45523;BME280;31254;51.680;5.394;2023-06-22T11:41:03;101645.53;;;23.36;69.20
45523;BME280;31254;51.680;5.394;2023-06-22T11:43:30;101638.94;;;23.31;69.70
45523;BME280;31254;51.680;5.394;2023-06-22T11:45:57;101639.13;;;23.16;70.27
45523;BME280;31254;51.680;5.394;2023-06-22T11:48:26;101666.94;;;23.23;71.56
45523;BME280;31254;51.680;5.394;2023-06-22T11:50:53;101665.88;;;23.17;72.94
45523;BME280;31254;51.680;5.394;2023-06-22T11:53:25;101662.91;;;23.12;72.89
45523;BME280;31254;51.680;5.394;2023-06-22T11:55:52;101658.78;;;22.94;73.31
45523;BME280;31254;51.680;5.394;2023-06-22T11:58:20;101660.06;;;22.85;74.25
45523;BME280;31254;51.680;5.394;2023-06-22T12:00:48;101658.56;;;22.76;74.84
45523;BME280;31254;51.680;5.394;2023-06-22T12:03:18;101661.50;;;22.68;75.63
45523;BME280;31254;51.680;5.394;2023-06-22T12:05:50;101638.41;;;22.60;77.14
45523;BME280;31254;51.680;5.394;2023-06-22T12:08:20;101643.34;;;22.65;77.28
45523;BME280;31254;51.680;5.394;2023-06-22T12:10:48;101658.78;;;22.74;76.94
45523;BME280;31254;51.680;5.394;2023-06-22T12:13:16;101637.34;;;22.61;76.77
45523;BME280;31254;51.680;5.394;2023-06-22T12:15:43;101648.06;;;22.64;77.33
45523;BME280;31254;51.680;5.394;2023-06-22T12:18:10;101651.00;;;22.56;77.60
45523;BME280;31254;51.680;5.394;2023-06-22T12:20:37;101648.41;;;22.41;78.26
45523;BME280;31254;51.680;5.394;2023-06-22T12:23:06;101642.78;;;22.28;78.16
45523;BME280;31254;51.680;5.394;2023-06-22T12:25:33;101640.84;;;22.22;77.99
45523;BME280;31254;51.680;5.394;2023-06-22T12:28:00;101639.34;;;22.19;78.05
45523;BME280;31254;51.680;5.394;2023-06-22T12:30:32;101620.03;;;22.04;78.97
45523;BME280;31254;51.680;5.394;2023-06-22T12:32:59;101625.34;;;21.99;79.23
45523;BME280;31254;51.680;5.394;2023-06-22T12:35:26;101614.63;;;21.89;79.43
45523;BME280;31254;51.680;5.394;2023-06-22T12:37:53;101474.94;;;20.99;80.01
45523;BME280;31254;51.680;5.394;2023-06-22T12:40:22;101565.69;;;21.47;80.70
45523;BME280;31254;51.680;5.394;2023-06-22T12:42:55;101625.72;;;21.83;80.69
45523;BME280;31254;51.680;5.394;2023-06-22T12:45:23;101593.94;;;21.50;81.40
45523;BME280;31254;51.680;5.394;2023-06-22T12:47:53;101623.25;;;21.60;81.43
45523;BME280;31254;51.680;5.394;2023-06-22T12:50:20;101630.34;;;21.41;81.88
45523;BME280;31254;51.680;5.394;2023-06-22T12:52:47;101637.78;;;21.33;81.66
45523;BME280;31254;51.680;5.394;2023-06-22T12:55:14;101602.56;;;21.06;82.11
45523;BME280;31254;51.680;5.394;2023-06-22T12:57:41;101619.22;;;21.06;82.13
45523;BME280;31254;51.680;5.394;2023-06-22T13:00:08;101617.69;;;21.03;82.23
45523;BME280;31254;51.680;5.394;2023-06-22T13:02:41;101600.34;;;20.94;82.18
45523;BME280;31254;51.680;5.394;2023-06-22T13:05:09;101599.16;;;20.82;83.00
45523;BME280;31254;51.680;5.394;2023-06-22T13:07:36;101592.91;;;20.73;83.12